»·PEaware :: TPX474 KLAS-KLGB

TPX474 :: KLAS-KLGB

FLIGHT INFORMATION

Flight Status: Arrived
Operator: ATP Experience
More flights by this operator :: More flights under this callsign
Pilot: Dave P. (45)
Aircraft: BOEING 737-800
(B738)
More flights by this aircraft type
Origin: KLAS McCarran Intl
United States
Destination: KLGB Long Beach
United States
More flights between these airports :: More routes between these airports
Route: BOACH8 WHIGG FEYLA DSNEE4
File this flight plan on PilotEdge
Remarks: PBN / A1B1C1D1S1S2 DOF / 180821 REG / N738PM OPR / TPX PER / D RMK / TCAS SIMBRIEF
Altitude:
(Current/Filed)
28,000ft
Speed:
(Current/Filed)
477kts
Departed: 21-Aug-18 01:38 PM
Arrived: 21-Aug-18 02:22 PM
Distance/Time
Traveled:
200nm/0:44
Distance/Time
To Go:
Arrived

Flight Plot

Page will automatically refresh every two minutes.

Flight plan parsing failed; only flown route is shown


Map Options




Map Legend


Flown Route
Filed Route
Departure Airport
Arrival Airport
Navaid (VOR, NDB)
Fix

Horizontal Profiles

Position Reports

Time Latitude Longitude Heading Altitude Ground
Speed
21-Aug-18 13:13 36.080567 -115.138753 313 2189ft 0kts
21-Aug-18 13:14 36.080567 -115.138753 313 2189ft 0kts
21-Aug-18 13:15 36.080567 -115.138753 313 2189ft 0kts
21-Aug-18 13:16 36.080567 -115.138753 313 2189ft 0kts
21-Aug-18 13:17 36.080567 -115.138753 313 2189ft 0kts
21-Aug-18 13:18 36.080567 -115.138753 313 2189ft 0kts
21-Aug-18 13:19 36.080567 -115.138753 313 2189ft 0kts
21-Aug-18 13:20 36.080567 -115.138753 313 2189ft 0kts
21-Aug-18 13:21 36.080567 -115.138753 313 2189ft 0kts
21-Aug-18 13:22 36.080567 -115.138753 313 2189ft 0kts
21-Aug-18 13:23 36.080567 -115.138753 313 2189ft 0kts
21-Aug-18 13:24 36.080567 -115.138753 313 2189ft 0kts
21-Aug-18 13:25 36.080567 -115.138753 313 2189ft 0kts
21-Aug-18 13:26 36.080567 -115.138753 313 2189ft 0kts
21-Aug-18 13:27 36.080567 -115.138753 313 2189ft 0kts
21-Aug-18 13:28 36.080567 -115.138753 313 2189ft 0kts
21-Aug-18 13:29 36.080238 -115.138328 313 2189ft 2kts
21-Aug-18 13:30 36.080080 -115.138123 313 2189ft 0kts
21-Aug-18 13:31 36.080080 -115.138123 313 2189ft 0kts
21-Aug-18 13:32 36.079001 -115.139455 227 2189ft 0kts
21-Aug-18 13:33 36.078487 -115.139651 180 2189ft 7kts
21-Aug-18 13:34 36.078239 -115.133786 90 2189ft 17kts
21-Aug-18 13:35 36.078247 -115.126238 90 2189ft 18kts
21-Aug-18 13:36 36.077782 -115.122251 118 2189ft 12kts
21-Aug-18 13:37 36.077099 -115.121303 178 2189ft 0kts
21-Aug-18 13:38 36.076348 -115.121980 268 2189ft 8kts
21-Aug-18 13:39 36.076339 -115.144265 268 2198ft 156kts
21-Aug-18 13:40 36.077369 -115.201532 263 4318ft 177kts
21-Aug-18 13:41 36.056931 -115.263982 205 5527ft 241kts
21-Aug-18 13:42 35.987806 -115.294097 199 7027ft 271kts
21-Aug-18 13:43 35.912958 -115.308758 185 9311ft 276kts
21-Aug-18 13:44 35.831685 -115.313022 176 11404ft 323kts
21-Aug-18 13:45 35.735282 -115.301244 176 13392ft 361kts
21-Aug-18 13:46 35.644934 -115.342428 222 15952ft 368kts
21-Aug-18 13:47 35.573199 -115.436055 227 18379ft 382kts
21-Aug-18 13:48 35.500189 -115.534054 227 20563ft 396kts
21-Aug-18 13:49 35.425147 -115.635326 227 22479ft 407kts
21-Aug-18 13:50 35.347649 -115.739670 227 24162ft 418kts
21-Aug-18 13:51 35.268413 -115.845712 226 25701ft 426kts
21-Aug-18 13:52 35.186366 -115.952763 225 27241ft 431kts
21-Aug-18 13:53 35.102920 -116.057484 225 27884ft 429kts
21-Aug-18 13:54 35.019973 -116.162057 225 27889ft 429kts
21-Aug-18 13:55 34.936419 -116.266605 225 27915ft 429kts
21-Aug-18 13:56 34.854239 -116.370077 225 27915ft 417kts
21-Aug-18 13:57 34.774640 -116.471480 225 27651ft 403kts
21-Aug-18 13:58 34.696466 -116.570346 223 25158ft 402kts
21-Aug-18 13:59 34.610447 -116.656150 218 22733ft 398kts
21-Aug-18 14:00 34.525262 -116.739043 218 20637ft 385kts
21-Aug-18 14:01 34.447719 -116.824392 224 18770ft 370kts
21-Aug-18 14:02 34.375191 -116.909273 223 16982ft 356kts
21-Aug-18 14:03 34.303090 -116.992531 223 14882ft 353kts
21-Aug-18 14:04 34.227425 -117.062731 210 13538ft 334kts
21-Aug-18 14:05 34.147579 -117.116539 204 12742ft 330kts
21-Aug-18 14:06 34.062983 -117.160745 204 12325ft 329kts
21-Aug-18 14:07 33.986063 -117.212090 223 11611ft 306kts
21-Aug-18 14:08 33.930785 -117.288166 229 10487ft 295kts
21-Aug-18 14:09 33.880178 -117.359792 229 9354ft 268kts
21-Aug-18 14:10 33.833808 -117.425185 229 8337ft 250kts
21-Aug-18 14:11 33.802311 -117.498303 249 7752ft 248kts
21-Aug-18 14:12 33.778907 -117.575950 249 7402ft 247kts
21-Aug-18 14:13 33.755450 -117.653386 249 6762ft 248kts
21-Aug-18 14:14 33.733102 -117.728765 249 6078ft 229kts
21-Aug-18 14:15 33.711624 -117.800908 249 4825ft 228kts
21-Aug-18 14:16 33.691229 -117.869186 249 4173ft 193kts
21-Aug-18 14:17 33.677586 -117.929432 277 3988ft 192kts
21-Aug-18 14:18 33.689370 -117.991247 285 3590ft 188kts
21-Aug-18 14:19 33.724457 -118.038667 313 2430ft 189kts
21-Aug-18 14:20 33.759890 -118.081358 312 1463ft 169kts
21-Aug-18 14:21 33.791492 -118.119552 312 614ft 156kts
21-Aug-18 14:22 33.820356 -118.154493 314 68ft 78kts
21-Aug-18 14:23 33.821717 -118.153347 89 68ft 0kts
21-Aug-18 14:24 33.821717 -118.153198 89 68ft 5kts
21-Aug-18 14:25 33.821682 -118.148219 88 68ft 10kts

Navigation Log

Ident Type
Flight plan parsing failed, navigation log unavailable